sensor_id;sensor_type;location;lat;lon;timestamp;pressure;altitude;pressure_sealevel;temperature;humidity
21129;BME280;10722;51.910;8.352;2023-05-10T00:02:23;100020.31;;;14.61;100.00
21129;BME280;10722;51.910;8.352;2023-05-10T00:05:08;100022.03;;;14.63;100.00
21129;BME280;10722;51.910;8.352;2023-05-10T00:07:53;100012.59;;;14.54;100.00
21129;BME280;10722;51.910;8.352;2023-05-10T00:10:38;100005.66;;;14.49;100.00
21129;BME280;10722;51.910;8.352;2023-05-10T00:13:24;100016.91;;;14.55;100.00
21129;BME280;10722;51.910;8.352;2023-05-10T00:16:09;100015.16;;;14.59;100.00
21129;BME280;10722;51.910;8.352;2023-05-10T00:18:55;100010.81;;;14.58;100.00
21129;BME280;10722;51.910;8.352;2023-05-10T00:21:40;100009.91;;;14.62;100.00
21129;BME280;10722;51.910;8.352;2023-05-10T00:24:25;100008.22;;;14.56;100.00
21129;BME280;10722;51.910;8.352;2023-05-10T00:27:10;99997.03;;;14.45;100.00
21129;BME280;10722;51.910;8.352;2023-05-10T00:29:55;100006.53;;;14.52;100.00
21129;BME280;10722;51.910;8.352;2023-05-10T00:32:40;99999.63;;;14.45;100.00
21129;BME280;10722;51.910;8.352;2023-05-10T00:35:26;99999.63;;;14.45;100.00
21129;BME280;10722;51.910;8.352;2023-05-10T00:38:10;100007.44;;;14.44;100.00
21129;BME280;10722;51.910;8.352;2023-05-10T00:40:55;99998.81;;;14.39;100.00
21129;BME280;10722;51.910;8.352;2023-05-10T00:43:41;100000.47;;;14.52;100.00
21129;BME280;10722;51.910;8.352;2023-05-10T00:46:26;100000.47;;;14.52;100.00
21129;BME280;10722;51.910;8.352;2023-05-10T00:49:11;99996.19;;;14.43;100.00
21129;BME280;10722;51.910;8.352;2023-05-10T00:51:57;99990.22;;;14.32;100.00
21129;BME280;10722;51.910;8.352;2023-05-10T00:54:42;99996.28;;;14.32;100.00
21129;BME280;10722;51.910;8.352;2023-05-10T00:57:28;100001.38;;;14.45;100.00
21129;BME280;10722;51.910;8.352;2023-05-10T01:00:14;99999.56;;;14.50;100.00
21129;BME280;10722;51.910;8.352;2023-05-10T01:05:46;99999.56;;;14.54;100.00
21129;BME280;10722;51.910;8.352;2023-05-10T01:08:31;100005.56;;;14.64;100.00
21129;BME280;10722;51.910;8.352;2023-05-10T01:11:17;99991.63;;;14.67;100.00
21129;BME280;10722;51.910;8.352;2023-05-10T01:14:02;99992.56;;;14.61;100.00
21129;BME280;10722;51.910;8.352;2023-05-10T01:16:49;99992.38;;;14.78;100.00
21129;BME280;10722;51.910;8.352;2023-05-10T01:19:34;100001.81;;;14.90;100.00
21129;BME280;10722;51.910;8.352;2023-05-10T01:32:14;99980.56;;;14.43;100.00
21129;BME280;10722;51.910;8.352;2023-05-10T01:37:56;99976.59;;;14.05;100.00
21129;BME280;10722;51.910;8.352;2023-05-10T01:44:00;99982.16;;;13.56;100.00
21129;BME280;10722;51.910;8.352;2023-05-10T01:46:51;99996.03;;;13.51;100.00
21129;BME280;10722;51.910;8.352;2023-05-10T01:49:44;100000.47;;;13.32;100.00
21129;BME280;10722;51.910;8.352;2023-05-10T01:52:33;100004.88;;;13.11;100.00
21129;BME280;10722;51.910;8.352;2023-05-10T01:55:23;100013.53;;;13.18;100.00
21129;BME280;10722;51.910;8.352;2023-05-10T01:58:11;100011.75;;;13.20;100.00
21129;BME280;10722;51.910;8.352;2023-05-10T02:00:59;100023.03;;;13.14;100.00
21129;BME280;10722;51.910;8.352;2023-05-10T02:03:47;100025.66;;;13.13;100.00
21129;BME280;10722;51.910;8.352;2023-05-10T02:06:35;100034.31;;;13.18;100.00
21129;BME280;10722;51.910;8.352;2023-05-10T02:09:22;100039.53;;;13.06;100.00
21129;BME280;10722;51.910;8.352;2023-05-10T02:12:09;100036.94;;;13.06;100.00
21129;BME280;10722;51.910;8.352;2023-05-10T02:14:54;100040.38;;;13.12;100.00
21129;BME280;10722;51.910;8.352;2023-05-10T02:17:42;100042.94;;;13.17;100.00
21129;BME280;10722;51.910;8.352;2023-05-10T02:20:27;100049.06;;;13.00;100.00
21129;BME280;10722;51.910;8.352;2023-05-10T02:23:14;100044.75;;;12.96;100.00
21129;BME280;10722;51.910;8.352;2023-05-10T02:26:01;100046.47;;;13.02;100.00
21129;BME280;10722;51.910;8.352;2023-05-10T02:28:47;100049.13;;;12.90;100.00
21129;BME280;10722;51.910;8.352;2023-05-10T02:31:34;100053.44;;;12.92;100.00
21129;BME280;10722;51.910;8.352;2023-05-10T02:34:25;100055.19;;;12.84;100.00
21129;BME280;10722;51.910;8.352;2023-05-10T02:37:13;100056.00;;;12.94;100.00
21129;BME280;10722;51.910;8.352;2023-05-10T02:39:59;100061.16;;;13.03;100.00
21129;BME280;10722;51.910;8.352;2023-05-10T02:42:47;100056.84;;;13.02;100.00
21129;BME280;10722;51.910;8.352;2023-05-10T02:45:35;100052.53;;;12.99;100.00
21129;BME280;10722;51.910;8.352;2023-05-10T02:48:21;100059.41;;;13.13;100.00
21129;BME280;10722;51.910;8.352;2023-05-10T02:51:07;100054.19;;;13.23;100.00
21129;BME280;10722;51.910;8.352;2023-05-10T02:53:53;100064.66;;;12.97;100.00
21129;BME280;10722;51.910;8.352;2023-05-10T02:56:42;100063.81;;;12.95;100.00
21129;BME280;10722;51.910;8.352;2023-05-10T02:59:32;100056.88;;;12.93;100.00
21129;BME280;10722;51.910;8.352;2023-05-10T03:02:18;100056.03;;;12.86;100.00
21129;BME280;10722;51.910;8.352;2023-05-10T03:05:03;100063.78;;;12.89;100.00
21129;BME280;10722;51.910;8.352;2023-05-10T03:07:48;100067.28;;;12.85;100.00
21129;BME280;10722;51.910;8.352;2023-05-10T03:11:13;100064.69;;;12.77;100.00
21129;BME280;10722;51.910;8.352;2023-05-10T03:16:58;100072.47;;;12.90;100.00
21129;BME280;10722;51.910;8.352;2023-05-10T03:20:03;100075.91;;;12.92;100.00
21129;BME280;10722;51.910;8.352;2023-05-10T03:22:55;100072.44;;;12.94;100.00
21129;BME280;10722;51.910;8.352;2023-05-10T03:25:41;100074.19;;;12.98;100.00
21129;BME280;10722;51.910;8.352;2023-05-10T03:28:27;100080.22;;;12.99;100.00
21129;BME280;10722;51.910;8.352;2023-05-10T03:31:13;100085.41;;;13.10;100.00
21129;BME280;10722;51.910;8.352;2023-05-10T03:33:58;100084.53;;;13.12;100.00
21129;BME280;10722;51.910;8.352;2023-05-10T03:36:44;100087.97;;;13.11;100.00
21129;BME280;10722;51.910;8.352;2023-05-10T03:39:29;100088.91;;;12.93;100.00
21129;BME280;10722;51.910;8.352;2023-05-10T03:42:14;100083.72;;;12.93;100.00
21129;BME280;10722;51.910;8.352;2023-05-10T03:45:00;100087.16;;;12.86;100.00
21129;BME280;10722;51.910;8.352;2023-05-10T03:47:45;100078.56;;;12.81;100.00
21129;BME280;10722;51.910;8.352;2023-05-10T03:50:30;100088.03;;;12.91;100.00
21129;BME280;10722;51.910;8.352;2023-05-10T03:53:16;100088.06;;;12.76;100.00
21129;BME280;10722;51.910;8.352;2023-05-10T03:56:01;100097.56;;;12.83;100.00
21129;BME280;10722;51.910;8.352;2023-05-10T03:58:47;100095.88;;;12.68;100.00
21129;BME280;10722;51.910;8.352;2023-05-10T04:01:33;100090.66;;;12.67;100.00
21129;BME280;10722;51.910;8.352;2023-05-10T04:04:19;100090.66;;;12.71;100.00
21129;BME280;10722;51.910;8.352;2023-05-10T04:07:04;100085.50;;;12.62;100.00
21129;BME280;10722;51.910;8.352;2023-05-10T04:09:49;100087.22;;;12.68;100.00
21129;BME280;10722;51.910;8.352;2023-05-10T04:12:35;100094.13;;;12.66;100.00
21129;BME280;10722;51.910;8.352;2023-05-10T04:15:20;100093.28;;;12.68;100.00
21129;BME280;10722;51.910;8.352;2023-05-10T04:18:05;100093.28;;;12.65;100.00
21129;BME280;10722;51.910;8.352;2023-05-10T04:20:52;100095.00;;;12.57;100.00
21129;BME280;10722;51.910;8.352;2023-05-10T04:23:38;100096.75;;;12.60;100.00
21129;BME280;10722;51.910;8.352;2023-05-10T04:26:23;100100.22;;;12.62;100.00
21129;BME280;10722;51.910;8.352;2023-05-10T04:29:08;100104.50;;;12.66;100.00
21129;BME280;10722;51.910;8.352;2023-05-10T04:31:54;100105.38;;;12.68;100.00
21129;BME280;10722;51.910;8.352;2023-05-10T04:34:39;100100.19;;;12.71;100.00
21129;BME280;10722;51.910;8.352;2023-05-10T04:37:24;100100.19;;;12.65;100.00
21129;BME280;10722;51.910;8.352;2023-05-10T04:40:10;100098.44;;;12.64;100.00
21129;BME280;10722;51.910;8.352;2023-05-10T04:42:55;100104.53;;;12.64;100.00
21129;BME280;10722;51.910;8.352;2023-05-10T04:45:40;100107.97;;;12.71;100.00
21129;BME280;10722;51.910;8.352;2023-05-10T04:48:25;100110.56;;;12.69;100.00
21129;BME280;10722;51.910;8.352;2023-05-10T04:51:11;100115.78;;;12.68;100.00
21129;BME280;10722;51.910;8.352;2023-05-10T04:53:56;100117.50;;;12.73;100.00
21129;BME280;10722;51.910;8.352;2023-05-10T04:56:50;100110.56;;;12.71;100.00
21129;BME280;10722;51.910;8.352;2023-05-10T04:59:36;100121.81;;;12.77;100.00
21129;BME280;10722;51.910;8.352;2023-05-10T05:02:21;100118.34;;;12.71;100.00
21129;BME280;10722;51.910;8.352;2023-05-10T05:05:07;100119.22;;;12.67;100.00
21129;BME280;10722;51.910;8.352;2023-05-10T05:07:52;100136.53;;;12.71;100.00
21129;BME280;10722;51.910;8.352;2023-05-10T05:10:37;100132.19;;;12.85;100.00
21129;BME280;10722;51.910;8.352;2023-05-10T05:13:22;100132.19;;;12.71;100.00
21129;BME280;10722;51.910;8.352;2023-05-10T05:16:08;100133.91;;;12.74;100.00
21129;BME280;10722;51.910;8.352;2023-05-10T05:18:53;100136.50;;;12.77;100.00
21129;BME280;10722;51.910;8.352;2023-05-10T05:21:39;100139.13;;;12.65;100.00
21129;BME280;10722;51.910;8.352;2023-05-10T05:24:24;100146.06;;;12.50;100.00
21129;BME280;10722;51.910;8.352;2023-05-10T05:27:09;100156.41;;;12.63;100.00
21129;BME280;10722;51.910;8.352;2023-05-10T05:29:55;100153.84;;;12.47;100.00
21129;BME280;10722;51.910;8.352;2023-05-10T05:32:41;100159.00;;;12.35;100.00
21129;BME280;10722;51.910;8.352;2023-05-10T05:35:26;100154.69;;;12.42;100.00
21129;BME280;10722;51.910;8.352;2023-05-10T05:38:12;100164.19;;;12.38;100.00
21129;BME280;10722;51.910;8.352;2023-05-10T05:40:57;100165.06;;;12.42;100.00
21129;BME280;10722;51.910;8.352;2023-05-10T05:43:42;100168.50;;;12.22;100.00
21129;BME280;10722;51.910;8.352;2023-05-10T05:46:28;100179.75;;;12.41;100.00
21129;BME280;10722;51.910;8.352;2023-05-10T05:49:13;100184.03;;;12.24;100.00
21129;BME280;10722;51.910;8.352;2023-05-10T05:51:59;100185.81;;;12.37;100.00
21129;BME280;10722;51.910;8.352;2023-05-10T05:54:45;100184.94;;;12.38;100.00
21129;BME280;10722;51.910;8.352;2023-05-10T05:57:30;100193.59;;;12.42;100.00
21129;BME280;10722;51.910;8.352;2023-05-10T06:00:15;100197.91;;;12.33;100.00
21129;BME280;10722;51.910;8.352;2023-05-10T06:03:01;100199.66;;;12.42;100.00
21129;BME280;10722;51.910;8.352;2023-05-10T06:05:46;100203.13;;;12.60;100.00
21129;BME280;10722;51.910;8.352;2023-05-10T06:08:31;100208.31;;;12.66;100.00
21129;BME280;10722;51.910;8.352;2023-05-10T06:11:17;100206.59;;;12.63;100.00
21129;BME280;10722;51.910;8.352;2023-05-10T06:14:03;100202.25;;;12.61;100.00
21129;BME280;10722;51.910;8.352;2023-05-10T06:16:49;100206.59;;;12.59;100.00
21129;BME280;10722;51.910;8.352;2023-05-10T06:19:34;100209.19;;;12.68;100.00
21129;BME280;10722;51.910;8.352;2023-05-10T06:22:20;100208.34;;;12.70;100.00
21129;BME280;10722;51.910;8.352;2023-05-10T06:25:05;100212.66;;;12.77;100.00
21129;BME280;10722;51.910;8.352;2023-05-10T06:27:51;100213.53;;;12.83;100.00
21129;BME280;10722;51.910;8.352;2023-05-10T06:30:37;100216.09;;;12.75;100.00
21129;BME280;10722;51.910;8.352;2023-05-10T06:33:23;100225.63;;;12.57;100.00
21129;BME280;10722;51.910;8.352;2023-05-10T06:36:08;100229.03;;;12.44;100.00
21129;BME280;10722;51.910;8.352;2023-05-10T06:38:53;100241.97;;;12.23;100.00
21129;BME280;10722;51.910;8.352;2023-05-10T06:41:38;100238.53;;;12.28;100.00
21129;BME280;10722;51.910;8.352;2023-05-10T06:44:24;100245.44;;;12.25;100.00
21129;BME280;10722;51.910;8.352;2023-05-10T06:47:09;100256.72;;;12.38;100.00
21129;BME280;10722;51.910;8.352;2023-05-10T06:49:54;100260.13;;;12.17;100.00
21129;BME280;10722;51.910;8.352;2023-05-10T06:52:40;100266.19;;;12.23;100.00
21129;BME280;10722;51.910;8.352;2023-05-10T06:55:26;100267.06;;;12.28;100.00
21129;BME280;10722;51.910;8.352;2023-05-10T06:58:11;100268.81;;;12.34;100.00
21129;BME280;10722;51.910;8.352;2023-05-10T07:01:02;100275.75;;;12.43;100.00
21129;BME280;10722;51.910;8.352;2023-05-10T07:03:47;100272.25;;;12.30;100.00
21129;BME280;10722;51.910;8.352;2023-05-10T07:06:32;100278.34;;;12.40;100.00
21129;BME280;10722;51.910;8.352;2023-05-10T07:09:18;100277.47;;;12.47;100.00
21129;BME280;10722;51.910;8.352;2023-05-10T07:12:03;100285.31;;;12.61;100.00
21129;BME280;10722;51.910;8.352;2023-05-10T07:14:49;100286.13;;;12.44;100.00
21129;BME280;10722;51.910;8.352;2023-05-10T07:17:34;100287.00;;;12.43;100.00
21129;BME280;10722;51.910;8.352;2023-05-10T07:20:19;100291.34;;;12.53;100.00
21129;BME280;10722;51.910;8.352;2023-05-10T07:23:05;100296.53;;;12.58;100.00
21129;BME280;10722;51.910;8.352;2023-05-10T07:25:51;100293.09;;;12.57;100.00
21129;BME280;10722;51.910;8.352;2023-05-10T07:28:36;100280.16;;;12.76;100.00
21129;BME280;10722;51.910;8.352;2023-05-10T07:31:21;100293.13;;;12.84;100.00
21129;BME280;10722;51.910;8.352;2023-05-10T07:34:07;100289.63;;;12.72;100.00
21129;BME280;10722;51.910;8.352;2023-05-10T07:36:52;100296.63;;;12.84;100.00
21129;BME280;10722;51.910;8.352;2023-05-10T07:39:38;100297.47;;;12.89;100.00
21129;BME280;10722;51.910;8.352;2023-05-10T07:42:23;100300.94;;;12.94;100.00
21129;BME280;10722;51.910;8.352;2023-05-10T07:45:09;100294.03;;;12.98;100.00
21129;BME280;10722;51.910;8.352;2023-05-10T07:47:54;100296.63;;;13.18;100.00
21129;BME280;10722;51.910;8.352;2023-05-10T07:50:39;100294.06;;;13.27;100.00
21129;BME280;10722;51.910;8.352;2023-05-10T07:53:26;100293.16;;;13.14;100.00
21129;BME280;10722;51.910;8.352;2023-05-10T07:56:25;100299.25;;;13.33;100.00
21129;BME280;10722;51.910;8.352;2023-05-10T07:59:15;100292.31;;;13.44;100.00
21129;BME280;10722;51.910;8.352;2023-05-10T08:02:00;100286.22;;;13.45;100.00
21129;BME280;10722;51.910;8.352;2023-05-10T08:04:46;100293.19;;;13.33;100.00
21129;BME280;10722;51.910;8.352;2023-05-10T08:07:31;100290.56;;;13.42;100.00
21129;BME280;10722;51.910;8.352;2023-05-10T08:10:17;100287.97;;;13.39;100.00
21129;BME280;10722;51.910;8.352;2023-05-10T08:13:02;100291.47;;;13.35;100.00
21129;BME280;10722;51.910;8.352;2023-05-10T08:15:48;100300.09;;;13.15;100.00
21129;BME280;10722;51.910;8.352;2023-05-10T08:18:33;100283.63;;;13.09;100.00
21129;BME280;10722;51.910;8.352;2023-05-10T08:21:19;100299.25;;;13.30;100.00
21129;BME280;10722;51.910;8.352;2023-05-10T08:24:04;100306.13;;;13.17;100.00
21129;BME280;10722;51.910;8.352;2023-05-10T08:26:49;100312.22;;;13.36;100.00
21129;BME280;10722;51.910;8.352;2023-05-10T08:29:35;100312.19;;;13.15;100.00
21129;BME280;10722;51.910;8.352;2023-05-10T08:32:33;100303.56;;;13.13;100.00
21129;BME280;10722;51.910;8.352;2023-05-10T08:35:18;100296.63;;;13.29;100.00
21129;BME280;10722;51.910;8.352;2023-05-10T08:38:04;100308.72;;;13.14;100.00
21129;BME280;10722;51.910;8.352;2023-05-10T08:40:49;100314.81;;;13.13;100.00
21129;BME280;10722;51.910;8.352;2023-05-10T08:43:35;100311.34;;;13.19;100.00
21129;BME280;10722;51.910;8.352;2023-05-10T08:46:22;100311.34;;;13.19;100.00
21129;BME280;10722;51.910;8.352;2023-05-10T08:49:09;100314.78;;;13.09;100.00
21129;BME280;10722;51.910;8.352;2023-05-10T08:51:57;100325.19;;;13.15;100.00
21129;BME280;10722;51.910;8.352;2023-05-10T08:54:42;100331.25;;;13.11;100.00
21129;BME280;10722;51.910;8.352;2023-05-10T08:57:27;100336.44;;;13.11;100.00
21129;BME280;10722;51.910;8.352;2023-05-10T09:00:13;100339.09;;;13.29;100.00
21129;BME280;10722;51.910;8.352;2023-05-10T09:02:59;100333.91;;;13.38;100.00
21129;BME280;10722;51.910;8.352;2023-05-10T09:05:45;100345.13;;;13.65;100.00
21129;BME280;10722;51.910;8.352;2023-05-10T09:08:30;100337.31;;;13.91;100.00
21129;BME280;10722;51.910;8.352;2023-05-10T09:11:16;100333.81;;;13.97;100.00
21129;BME280;10722;51.910;8.352;2023-05-10T09:14:01;100338.09;;;14.07;100.00
21129;BME280;10722;51.910;8.352;2023-05-10T09:16:47;100330.38;;;13.87;100.00
21129;BME280;10722;51.910;8.352;2023-05-10T09:19:32;100328.59;;;14.06;100.00
21129;BME280;10722;51.910;8.352;2023-05-10T09:22:17;100324.13;;;14.32;100.00
21129;BME280;10722;51.910;8.352;2023-05-10T09:25:13;100319.59;;;14.82;100.00
21129;BME280;10722;51.910;8.352;2023-05-10T09:27:59;100311.72;;;14.88;100.00
21129;BME280;10722;51.910;8.352;2023-05-10T09:30:52;100295.16;;;14.97;100.00
21129;BME280;10722;51.910;8.352;2023-05-10T09:33:45;100288.09;;;15.14;100.00
21129;BME280;10722;51.910;8.352;2023-05-10T09:36:30;100283.44;;;15.50;100.00
21129;BME280;10722;51.910;8.352;2023-05-10T09:39:16;100274.34;;;15.89;100.00
21129;BME280;10722;51.910;8.352;2023-05-10T09:42:07;100260.22;;;16.07;100.00
21129;BME280;10722;51.910;8.352;2023-05-10T09:44:53;100253.28;;;16.05;100.00
21129;BME280;10722;51.910;8.352;2023-05-10T09:47:38;100233.09;;;16.22;100.00
21129;BME280;10722;51.910;8.352;2023-05-10T09:50:25;100225.47;;;16.67;100.00
21129;BME280;10722;51.910;8.352;2023-05-10T09:53:14;100189.88;;;16.60;100.00
21129;BME280;10722;51.910;8.352;2023-05-10T09:56:00;100183.56;;;16.16;100.00
21129;BME280;10722;51.910;8.352;2023-05-10T09:58:46;100190.19;;;16.39;100.00
21129;BME280;10722;51.910;8.352;2023-05-10T10:01:32;100193.09;;;16.79;100.00
21129;BME280;10722;51.910;8.352;2023-05-10T10:04:17;100199.63;;;17.03;100.00
21129;BME280;10722;51.910;8.352;2023-05-10T10:07:05;100201.22;;;17.12;100.00
21129;BME280;10722;51.910;8.352;2023-05-10T10:09:50;100180.81;;;16.84;100.00
21129;BME280;10722;51.910;8.352;2023-05-10T10:12:36;100197.50;;;16.17;100.00
21129;BME280;10722;51.910;8.352;2023-05-10T10:15:22;100224.19;;;15.66;100.00
21129;BME280;10722;51.910;8.352;2023-05-10T10:18:07;100245.97;;;15.60;100.00
21129;BME280;10722;51.910;8.352;2023-05-10T10:20:57;100260.69;;;15.64;100.00
21129;BME280;10722;51.910;8.352;2023-05-10T10:23:43;100264.88;;;15.79;100.00
21129;BME280;10722;51.910;8.352;2023-05-10T10:26:28;100254.50;;;15.78;100.00
21129;BME280;10722;51.910;8.352;2023-05-10T10:29:24;100257.28;;;16.33;100.00
21129;BME280;10722;51.910;8.352;2023-05-10T10:32:21;100243.75;;;16.04;100.00
21129;BME280;10722;51.910;8.352;2023-05-10T10:35:09;100261.66;;;16.31;100.00
21129;BME280;10722;51.910;8.352;2023-05-10T10:37:55;100236.84;;;16.63;100.00
21129;BME280;10722;51.910;8.352;2023-05-10T10:40:41;100225.19;;;16.87;100.00
21129;BME280;10722;51.910;8.352;2023-05-10T10:43:27;100194.28;;;16.56;98.32
21129;BME280;10722;51.910;8.352;2023-05-10T10:46:14;100194.34;;;17.06;97.35
21129;BME280;10722;51.910;8.352;2023-05-10T10:49:09;100183.78;;;17.14;95.64
21129;BME280;10722;51.910;8.352;2023-05-10T10:55:00;100140.91;;;17.24;90.99
21129;BME280;10722;51.910;8.352;2023-05-10T10:57:51;100128.59;;;17.29;89.66
21129;BME280;10722;51.910;8.352;2023-05-10T11:00:37;100137.19;;;17.36;89.75
21129;BME280;10722;51.910;8.352;2023-05-10T11:03:22;100159.94;;;17.31;89.92
21129;BME280;10722;51.910;8.352;2023-05-10T11:06:07;100169.00;;;17.11;89.81
21129;BME280;10722;51.910;8.352;2023-05-10T11:08:52;100185.44;;;16.65;90.89
21129;BME280;10722;51.910;8.352;2023-05-10T11:11:54;100248.22;;;15.93;95.06
21129;BME280;10722;51.910;8.352;2023-05-10T11:14:39;100281.47;;;15.75;99.80
21129;BME280;10722;51.910;8.352;2023-05-10T11:17:27;100296.25;;;15.75;100.00
21129;BME280;10722;51.910;8.352;2023-05-10T11:20:14;100306.66;;;15.76;100.00
21129;BME280;10722;51.910;8.352;2023-05-10T11:23:14;100305.81;;;15.77;100.00
21129;BME280;10722;51.910;8.352;2023-05-10T11:26:00;100313.88;;;16.30;100.00
21129;BME280;10722;51.910;8.352;2023-05-10T11:28:47;100291.28;;;16.27;100.00
21129;BME280;10722;51.910;8.352;2023-05-10T11:31:33;100278.00;;;16.46;100.00
21129;BME280;10722;51.910;8.352;2023-05-10T11:34:26;100251.44;;;16.13;99.61
21129;BME280;10722;51.910;8.352;2023-05-10T11:37:11;100300.50;;;15.83;100.00
21129;BME280;10722;51.910;8.352;2023-05-10T11:39:56;100337.50;;;15.30;100.00
21129;BME280;10722;51.910;8.352;2023-05-10T11:42:41;100369.19;;;14.59;100.00
21129;BME280;10722;51.910;8.352;2023-05-10T11:45:26;100374.41;;;14.47;100.00
21129;BME280;10722;51.910;8.352;2023-05-10T11:48:11;100380.53;;;14.29;100.00
21129;BME280;10722;51.910;8.352;2023-05-10T11:50:57;100369.25;;;14.27;100.00
21129;BME280;10722;51.910;8.352;2023-05-10T11:53:42;100368.44;;;14.25;100.00
21129;BME280;10722;51.910;8.352;2023-05-10T11:56:27;100372.66;;;14.44;100.00
21129;BME280;10722;51.910;8.352;2023-05-10T11:59:14;100377.03;;;14.45;100.00
21129;BME280;10722;51.910;8.352;2023-05-10T12:01:59;100368.34;;;14.54;100.00
21129;BME280;10722;51.910;8.352;2023-05-10T12:04:44;100375.31;;;14.38;100.00
21129;BME280;10722;51.910;8.352;2023-05-10T12:07:29;100385.72;;;14.38;100.00
21129;BME280;10722;51.910;8.352;2023-05-10T12:10:14;100381.38;;;14.45;100.00
21129;BME280;10722;51.910;8.352;2023-05-10T12:13:00;100374.44;;;14.42;100.00
21129;BME280;10722;51.910;8.352;2023-05-10T12:15:45;100366.59;;;14.59;100.00
21129;BME280;10722;51.910;8.352;2023-05-10T12:18:31;100363.91;;;14.71;100.00
21129;BME280;10722;51.910;8.352;2023-05-10T12:21:17;100366.56;;;14.65;100.00
21129;BME280;10722;51.910;8.352;2023-05-10T12:24:03;100369.91;;;14.87;100.00
21129;BME280;10722;51.910;8.352;2023-05-10T12:26:50;100366.47;;;14.77;100.00
21129;BME280;10722;51.910;8.352;2023-05-10T12:29:35;100366.44;;;14.90;100.00
21129;BME280;10722;51.910;8.352;2023-05-10T12:32:20;100362.47;;;15.55;100.00
21129;BME280;10722;51.910;8.352;2023-05-10T12:35:06;100361.66;;;15.49;100.00
21129;BME280;10722;51.910;8.352;2023-05-10T12:37:51;100342.66;;;15.34;100.00
21129;BME280;10722;51.910;8.352;2023-05-10T12:40:37;100337.34;;;15.46;100.00
21129;BME280;10722;51.910;8.352;2023-05-10T12:43:22;100337.22;;;15.59;100.00
21129;BME280;10722;51.910;8.352;2023-05-10T12:46:12;100338.91;;;15.64;100.00
21129;BME280;10722;51.910;8.352;2023-05-10T12:48:58;100335.38;;;15.75;100.00
21129;BME280;10722;51.910;8.352;2023-05-10T12:51:53;100348.47;;;15.62;100.00
21129;BME280;10722;51.910;8.352;2023-05-10T12:54:38;100345.06;;;15.60;100.00
21129;BME280;10722;51.910;8.352;2023-05-10T12:57:23;100345.06;;;15.59;100.00
21129;BME280;10722;51.910;8.352;2023-05-10T13:00:09;100355.44;;;15.62;100.00
21129;BME280;10722;51.910;8.352;2023-05-10T13:02:54;100351.22;;;15.52;100.00
21129;BME280;10722;51.910;8.352;2023-05-10T13:05:40;100343.47;;;15.39;100.00
21129;BME280;10722;51.910;8.352;2023-05-10T13:08:25;100355.59;;;15.46;100.00
21129;BME280;10722;51.910;8.352;2023-05-10T13:11:10;100359.97;;;15.43;100.00
21129;BME280;10722;51.910;8.352;2023-05-10T13:13:56;100373.00;;;15.40;100.00
21129;BME280;10722;51.910;8.352;2023-05-10T13:16:43;100403.50;;;15.32;100.00
21129;BME280;10722;51.910;8.352;2023-05-10T13:19:28;100408.66;;;15.36;100.00
21129;BME280;10722;51.910;8.352;2023-05-10T13:22:13;100406.91;;;15.43;100.00
21129;BME280;10722;51.910;8.352;2023-05-10T13:25:05;100409.50;;;15.43;100.00
21129;BME280;10722;51.910;8.352;2023-05-10T13:27:49;100413.97;;;15.22;100.00
21129;BME280;10722;51.910;8.352;2023-05-10T13:30:34;100398.44;;;15.10;100.00
21129;BME280;10722;51.910;8.352;2023-05-10T13:33:20;100394.84;;;15.27;100.00
21129;BME280;10722;51.910;8.352;2023-05-10T13:36:06;100405.31;;;15.20;100.00
21129;BME280;10722;51.910;8.352;2023-05-10T13:38:51;100398.19;;;15.44;100.00
21129;BME280;10722;51.910;8.352;2023-05-10T13:41:36;100400.78;;;15.45;100.00
21129;BME280;10722;51.910;8.352;2023-05-10T13:44:21;100397.16;;;15.66;100.00
21129;BME280;10722;51.910;8.352;2023-05-10T13:47:06;100387.75;;;15.45;100.00
21129;BME280;10722;51.910;8.352;2023-05-10T13:49:52;100385.75;;;15.78;100.00
21129;BME280;10722;51.910;8.352;2023-05-10T13:52:36;100401.22;;;16.00;100.00
21129;BME280;10722;51.910;8.352;2023-05-10T13:55:22;100388.88;;;16.16;100.00
21129;BME280;10722;51.910;8.352;2023-05-10T13:58:07;100373.75;;;16.44;100.00
21129;BME280;10722;51.910;8.352;2023-05-10T14:00:52;100370.28;;;16.43;100.00
21129;BME280;10722;51.910;8.352;2023-05-10T14:03:38;100369.34;;;16.50;100.00
21129;BME280;10722;51.910;8.352;2023-05-10T14:06:23;100359.84;;;16.43;100.00
21129;BME280;10722;51.910;8.352;2023-05-10T14:09:09;100359.28;;;16.17;100.00
21129;BME280;10722;51.910;8.352;2023-05-10T14:11:54;100360.81;;;16.33;100.00
21129;BME280;10722;51.910;8.352;2023-05-10T14:14:40;100361.50;;;16.50;100.00
21129;BME280;10722;51.910;8.352;2023-05-10T14:17:25;100360.66;;;16.48;100.00
21129;BME280;10722;51.910;8.352;2023-05-10T14:20:10;100365.59;;;16.70;100.00
21129;BME280;10722;51.910;8.352;2023-05-10T14:22:56;100368.84;;;16.89;100.00
21129;BME280;10722;51.910;8.352;2023-05-10T14:25:41;100373.97;;;16.96;100.00
21129;BME280;10722;51.910;8.352;2023-05-10T14:28:26;100355.81;;;16.86;100.00
21129;BME280;10722;51.910;8.352;2023-05-10T14:31:12;100342.50;;;17.02;100.00
21129;BME280;10722;51.910;8.352;2023-05-10T14:33:57;100330.09;;;17.17;100.00
21129;BME280;10722;51.910;8.352;2023-05-10T14:36:42;100304.59;;;17.31;100.00
21129;BME280;10722;51.910;8.352;2023-05-10T14:39:27;100292.13;;;17.48;99.17
21129;BME280;10722;51.910;8.352;2023-05-10T14:42:13;100266.75;;;17.52;96.88
21129;BME280;10722;51.910;8.352;2023-05-10T14:44:58;100271.09;;;17.53;95.67